Becks Mills, Ohio
Current Conditions -  °F | °C
As of 5:33 AM on Monday 26 Jan 2015 (Local Time) from KBJJ Reporting Station
Light Snow Light Snow  
Wind Chill:   Ceiling: 3100
Heat Index: 18°   Visibility: 2.5mi
Dew Point: 15°   Wind: 14mph
Humidity: 88%   Direction: 10°N
Pressure: 29.76"   Gusts: NA
Location:  40.5444°N, 81.851°W
Report Text: KBJJ 261033Z AUTO 01012KT 2 1/2SM -SN BR OVC031 M08/M09 A2976 RMK AO2 P0000 T10781094 TSNO
Loading
Personal Weather Stations






























Interactive Weather Map New forecast layout! Learn more

10-Day Weather Forecast

Advertisements
Track Severe Weather on mobile